createdAt,value
2023-08-14T00:00:46.453Z,17.58
2023-08-14T00:03:34.433Z,17.56
2023-08-14T00:06:02.798Z,17.51
2023-08-14T00:08:31.146Z,17.45
2023-08-14T00:10:59.735Z,17.42
2023-08-14T00:13:28.533Z,17.40
2023-08-14T00:15:56.851Z,17.39
2023-08-14T00:18:25.789Z,17.37
2023-08-14T00:20:54.008Z,17.35
2023-08-14T00:23:22.274Z,17.34
2023-08-14T00:25:50.384Z,17.32
2023-08-14T00:28:18.939Z,17.32
2023-08-14T00:30:47.172Z,17.31
2023-08-14T00:33:15.714Z,17.28
2023-08-14T00:35:44.194Z,17.27
2023-08-14T00:38:12.374Z,17.26
2023-08-14T00:40:40.537Z,17.23
2023-08-14T00:43:09.050Z,17.21
2023-08-14T00:45:46.473Z,17.17
2023-08-14T00:48:16.356Z,17.14
2023-08-14T00:50:46.164Z,17.12
2023-08-14T00:53:15.903Z,17.09
2023-08-14T00:55:44.578Z,17.06
2023-08-14T00:58:14.213Z,17.03
2023-08-14T01:00:44.439Z,17.01
2023-08-14T01:03:13.888Z,16.97
2023-08-14T01:05:42.420Z,16.90
2023-08-14T01:08:11.223Z,16.86
2023-08-14T01:11:00.139Z,16.84
2023-08-14T01:13:50.342Z,16.81
2023-08-14T01:16:24.694Z,16.79
2023-08-14T01:18:56.547Z,16.76
2023-08-14T01:21:34.235Z,16.74
2023-08-14T01:24:25.547Z,16.74
2023-08-14T01:26:54.230Z,16.72
2023-08-14T01:29:22.749Z,16.71
2023-08-14T01:31:51.198Z,16.69
2023-08-14T01:34:19.377Z,16.67
2023-08-14T01:37:14.264Z,16.64
2023-08-14T01:39:50.835Z,16.61
2023-08-14T01:42:26.817Z,16.57
2023-08-14T01:45:03.160Z,16.51
2023-08-14T01:47:34.596Z,16.46
2023-08-14T01:50:03.627Z,16.43
2023-08-14T01:52:34.038Z,16.39
2023-08-14T01:55:02.445Z,16.37
2023-08-14T01:57:32.444Z,16.36
2023-08-14T02:00:00.931Z,16.37
2023-08-14T02:02:29.523Z,16.37
2023-08-14T02:04:58.111Z,16.37
2023-08-14T02:07:26.397Z,16.38
2023-08-14T02:09:57.640Z,16.37
2023-08-14T02:12:27.262Z,16.33
2023-08-14T02:14:55.512Z,16.32
2023-08-14T02:17:24.230Z,16.32
2023-08-14T02:19:52.821Z,16.31
2023-08-14T02:22:22.036Z,16.25
2023-08-14T02:24:51.051Z,16.22
2023-08-14T02:27:19.177Z,16.21
2023-08-14T02:29:47.585Z,16.20
2023-08-14T02:32:16.766Z,16.18
2023-08-14T02:34:54.369Z,16.14
2023-08-14T02:37:23.290Z,16.08
2023-08-14T02:39:51.858Z,16.03
2023-08-14T02:42:22.164Z,15.98
2023-08-14T02:44:52.207Z,15.93
2023-08-14T02:47:21.142Z,15.87
2023-08-14T02:49:49.914Z,15.82
2023-08-14T02:52:18.676Z,15.77
2023-08-14T02:54:47.006Z,15.73
2023-08-14T02:57:15.375Z,15.69
2023-08-14T02:59:44.060Z,15.66
2023-08-14T03:02:12.296Z,15.64
2023-08-14T03:04:40.638Z,15.63
2023-08-14T03:07:08.811Z,15.60
2023-08-14T03:09:37.115Z,15.58
2023-08-14T03:12:06.035Z,15.55
2023-08-14T03:14:34.615Z,15.53
2023-08-14T03:17:02.994Z,15.50
2023-08-14T03:19:31.311Z,15.45
2023-08-14T03:21:59.946Z,15.42
2023-08-14T03:24:28.415Z,15.42
2023-08-14T03:26:56.928Z,15.39
2023-08-14T03:29:26.029Z,15.39
2023-08-14T03:31:55.011Z,15.37
2023-08-14T03:34:23.268Z,15.37
2023-08-14T03:36:51.596Z,15.37
2023-08-14T03:39:21.296Z,15.38
2023-08-14T03:41:49.557Z,15.38
2023-08-14T03:44:18.089Z,15.38
2023-08-14T03:46:46.540Z,15.39
2023-08-14T03:49:16.845Z,15.39
2023-08-14T03:51:45.874Z,15.41
2023-08-14T03:54:14.660Z,15.45
2023-08-14T03:56:43.453Z,15.49
2023-08-14T03:59:13.476Z,15.53
2023-08-14T04:01:44.419Z,15.55
2023-08-14T04:04:13.005Z,15.58
2023-08-14T04:06:41.868Z,15.60
2023-08-14T04:09:10.708Z,15.63
2023-08-14T04:11:39.241Z,15.65
2023-08-14T04:14:07.610Z,15.68
2023-08-14T04:16:45.516Z,15.70
2023-08-14T04:19:16.464Z,15.75
2023-08-14T04:21:45.151Z,15.79
2023-08-14T04:24:13.904Z,15.85
2023-08-14T04:26:42.427Z,15.91
2023-08-14T04:29:11.568Z,15.98
2023-08-14T04:31:41.782Z,16.04
2023-08-14T04:34:11.825Z,16.10
2023-08-14T04:36:42.590Z,16.17
2023-08-14T04:39:11.072Z,16.24
2023-08-14T04:41:40.066Z,16.33
2023-08-14T04:44:08.176Z,16.42
2023-08-14T04:49:10.128Z,16.60
2023-08-14T04:51:38.821Z,16.68
2023-08-14T04:54:07.548Z,16.77
2023-08-14T04:56:36.307Z,16.86
2023-08-14T04:59:05.351Z,16.92
2023-08-14T05:01:34.244Z,16.93
2023-08-14T05:04:02.691Z,16.94
2023-08-14T05:06:30.965Z,17.00
2023-08-14T05:09:02.173Z,17.06
2023-08-14T05:11:33.264Z,17.13
2023-08-14T05:14:01.545Z,17.12
2023-08-14T05:16:29.925Z,17.13
2023-08-14T05:19:00.078Z,17.18
2023-08-14T05:21:28.567Z,17.19
2023-08-14T05:23:56.630Z,17.19
2023-08-14T05:26:24.762Z,17.23
2023-08-14T05:28:53.161Z,17.29
2023-08-14T05:31:21.698Z,17.34
2023-08-14T05:33:50.261Z,17.43
2023-08-14T05:36:18.580Z,17.52
2023-08-14T05:38:46.934Z,17.61
2023-08-14T05:41:15.112Z,17.69
2023-08-14T05:43:43.709Z,17.77
2023-08-14T05:46:12.021Z,17.85
2023-08-14T05:48:40.570Z,17.93
2023-08-14T05:51:09.463Z,18.00
2023-08-14T05:53:37.767Z,18.07
2023-08-14T05:56:06.124Z,18.14
2023-08-14T05:58:34.298Z,18.24
2023-08-14T06:01:02.513Z,18.32
2023-08-14T06:03:43.558Z,18.41
2023-08-14T06:06:13.185Z,18.50
2023-08-14T06:08:41.870Z,18.57
2023-08-14T06:11:10.465Z,18.65
2023-08-14T06:13:38.892Z,18.75
2023-08-14T06:16:07.491Z,18.84
2023-08-14T06:18:35.921Z,18.91
2023-08-14T06:21:04.364Z,19.01
2023-08-14T06:23:32.963Z,19.13
2023-08-14T06:26:01.827Z,19.24
2023-08-14T06:28:30.277Z,19.35
2023-08-14T06:31:05.111Z,19.44
2023-08-14T06:33:33.519Z,19.54
2023-08-14T06:36:02.087Z,19.64
2023-08-14T06:38:30.307Z,19.74
2023-08-14T06:40:58.649Z,19.83
2023-08-14T06:43:26.716Z,19.91
2023-08-14T06:45:55.008Z,20.01
2023-08-14T06:48:23.294Z,20.12
2023-08-14T06:50:53.699Z,20.25
2023-08-14T06:53:22.107Z,20.38
2023-08-14T06:55:50.314Z,20.47
2023-08-14T06:58:18.778Z,20.54
2023-08-14T07:00:49.752Z,20.67
2023-08-14T07:03:18.163Z,20.79
2023-08-14T07:05:46.586Z,20.89
2023-08-14T07:08:15.179Z,21.00
2023-08-14T07:10:43.766Z,21.09
2023-08-14T07:13:12.456Z,21.18
2023-08-14T07:15:41.704Z,21.31
2023-08-14T07:18:10.422Z,21.43
2023-08-14T07:20:38.959Z,21.51
2023-08-14T07:23:07.644Z,21.60
2023-08-14T07:25:36.151Z,21.71
2023-08-14T07:28:05.115Z,21.84
2023-08-14T07:30:33.944Z,21.98
2023-08-14T07:33:02.891Z,22.11
2023-08-14T07:35:31.297Z,22.20
2023-08-14T07:37:59.697Z,22.30
2023-08-14T07:40:28.063Z,22.40
2023-08-14T07:42:56.549Z,22.50
2023-08-14T07:45:24.745Z,22.61
2023-08-14T07:47:53.364Z,22.74
2023-08-14T07:50:22.269Z,22.87
2023-08-14T07:52:50.602Z,23.00
2023-08-14T07:55:18.976Z,23.13
2023-08-14T07:57:47.396Z,23.24
2023-08-14T08:00:17.248Z,23.36
2023-08-14T08:02:45.474Z,23.49
2023-08-14T08:05:14.766Z,23.61
2023-08-14T08:07:43.159Z,23.74
2023-08-14T08:10:11.740Z,23.92
2023-08-14T08:12:40.086Z,24.05
2023-08-14T08:15:08.928Z,24.22
2023-08-14T08:17:37.324Z,24.41
2023-08-14T08:20:07.206Z,24.56
2023-08-14T08:22:35.509Z,24.74
2023-08-14T08:25:04.672Z,24.90
2023-08-14T08:27:33.230Z,25.07
2023-08-14T08:30:01.902Z,25.24
2023-08-14T08:32:31.216Z,25.42
2023-08-14T08:34:59.510Z,25.66
2023-08-14T08:37:27.654Z,25.87
2023-08-14T08:39:55.713Z,26.05
2023-08-14T08:42:24.229Z,26.28
2023-08-14T08:44:54.550Z,26.50
2023-08-14T08:47:27.842Z,26.72
2023-08-14T08:49:56.728Z,26.96
2023-08-14T08:52:25.984Z,27.15
2023-08-14T08:54:55.655Z,27.35
2023-08-14T08:57:24.068Z,27.57
2023-08-14T08:59:53.679Z,27.77
2023-08-14T09:02:22.461Z,27.97
2023-08-14T09:04:51.087Z,28.19
2023-08-14T09:07:20.194Z,28.39
2023-08-14T09:09:48.871Z,28.56
2023-08-14T09:12:17.376Z,28.74
2023-08-14T09:15:00.377Z,28.95
2023-08-14T09:17:28.675Z,29.22
2023-08-14T09:19:57.007Z,29.45
2023-08-14T09:22:29.033Z,29.70
2023-08-14T09:24:58.572Z,29.97
2023-08-14T09:27:28.092Z,30.20
2023-08-14T09:29:56.576Z,30.51
2023-08-14T09:32:25.931Z,30.95
2023-08-14T09:35:02.130Z,31.42
2023-08-14T09:37:30.854Z,31.96
2023-08-14T09:40:16.869Z,32.55
2023-08-14T09:42:47.472Z,33.26
2023-08-14T09:45:18.781Z,33.81
2023-08-14T09:47:51.208Z,34.31
2023-08-14T09:50:22.650Z,35.01
2023-08-14T09:52:50.758Z,35.53
2023-08-14T09:55:19.081Z,35.98
2023-08-14T09:57:48.920Z,36.32
2023-08-14T10:00:17.887Z,36.84
2023-08-14T10:02:49.004Z,37.35
2023-08-14T10:05:19.409Z,37.89
2023-08-14T10:07:50.673Z,38.36
2023-08-14T10:10:20.754Z,38.92
2023-08-14T10:12:59.635Z,39.37
2023-08-14T10:15:41.080Z,39.61
2023-08-14T10:18:16.692Z,39.64
2023-08-14T10:20:49.316Z,40.00
2023-08-14T10:23:18.403Z,40.29
2023-08-14T10:25:51.967Z,40.54
2023-08-14T10:28:21.114Z,40.87
2023-08-14T10:30:49.775Z,41.25
2023-08-14T10:33:20.689Z,41.48
2023-08-14T10:35:51.204Z,41.63
2023-08-14T10:38:25.179Z,41.70
2023-08-14T10:41:05.447Z,41.94
2023-08-14T10:43:34.257Z,42.27
2023-08-14T10:46:15.080Z,42.47
2023-08-14T10:48:45.343Z,42.72
2023-08-14T10:51:18.017Z,42.99
2023-08-14T10:53:46.924Z,43.27
2023-08-14T10:56:15.274Z,43.51
2023-08-14T10:58:51.677Z,43.41
2023-08-14T11:01:20.058Z,43.36
2023-08-14T11:04:06.718Z,43.51
2023-08-14T11:07:00.218Z,43.78
2023-08-14T11:09:32.790Z,43.91
2023-08-14T11:12:10.096Z,43.97
2023-08-14T11:14:43.158Z,44.16
2023-08-14T11:17:11.695Z,44.25
2023-08-14T11:19:40.196Z,44.41
2023-08-14T11:22:08.694Z,44.39
2023-08-14T11:24:39.781Z,44.56
2023-08-14T11:27:08.634Z,44.76
2023-08-14T11:29:45.008Z,45.07
2023-08-14T11:32:22.906Z,45.00
2023-08-14T11:34:52.771Z,45.13
2023-08-14T11:37:21.310Z,45.45
2023-08-14T11:39:50.661Z,45.63
2023-08-14T11:42:19.408Z,45.87
2023-08-14T11:44:48.178Z,46.05
2023-08-14T11:47:16.591Z,46.25
2023-08-14T11:49:45.528Z,46.49
2023-08-14T11:52:14.217Z,46.81
2023-08-14T11:54:46.119Z,47.08
2023-08-14T11:57:15.183Z,47.20
2023-08-14T11:59:46.438Z,47.27
2023-08-14T12:02:14.729Z,47.37
2023-08-14T12:04:42.952Z,47.15
2023-08-14T12:07:12.089Z,47.11
2023-08-14T12:09:40.685Z,47.50
2023-08-14T12:12:09.206Z,48.00
2023-08-14T12:14:42.441Z,48.29
2023-08-14T12:17:17.206Z,48.32
2023-08-14T12:19:54.241Z,48.46
2023-08-14T12:22:24.250Z,48.49
2023-08-14T12:24:54.131Z,48.64
2023-08-14T12:27:22.783Z,48.84
2023-08-14T12:29:52.995Z,48.86
2023-08-14T12:32:23.455Z,49.07
2023-08-14T12:34:52.998Z,49.48
2023-08-14T12:37:21.960Z,49.97
2023-08-14T12:39:55.830Z,50.32
2023-08-14T12:42:24.518Z,50.63
2023-08-14T12:44:53.845Z,50.33
2023-08-14T12:47:22.887Z,50.32
2023-08-14T12:49:52.211Z,50.55
2023-08-14T12:52:20.782Z,50.67
2023-08-14T12:54:48.961Z,51.14
2023-08-14T12:57:17.128Z,51.50
2023-08-14T12:59:50.854Z,51.68
2023-08-14T13:02:24.646Z,51.79
2023-08-14T13:04:57.887Z,52.03
2023-08-14T13:07:30.841Z,52.20
2023-08-14T13:09:59.325Z,52.51
2023-08-14T13:12:27.603Z,52.65
2023-08-14T13:14:55.809Z,52.68
2023-08-14T13:17:24.306Z,52.58
2023-08-14T13:19:54.055Z,52.53
2023-08-14T13:22:23.099Z,52.82
2023-08-14T13:27:24.767Z,53.31
2023-08-14T13:29:53.074Z,53.31
2023-08-14T13:32:22.204Z,52.77
2023-08-14T13:34:50.537Z,52.52
2023-08-14T13:37:19.238Z,52.50
2023-08-14T13:39:48.428Z,52.61
2023-08-14T13:42:17.454Z,52.77
2023-08-14T13:44:45.917Z,52.62
2023-08-14T13:47:16.408Z,52.62
2023-08-14T13:49:46.785Z,52.85
2023-08-14T13:52:15.364Z,53.04
2023-08-14T13:54:44.561Z,53.04
2023-08-14T13:57:12.708Z,53.00
2023-08-14T13:59:42.306Z,52.99
2023-08-14T14:02:12.159Z,52.80
2023-08-14T14:04:40.804Z,53.08
2023-08-14T14:07:09.093Z,53.27
2023-08-14T14:09:39.862Z,53.40
2023-08-14T14:12:09.918Z,53.63
2023-08-14T14:14:38.110Z,53.72
2023-08-14T14:17:06.490Z,53.84
2023-08-14T14:19:34.902Z,54.05
2023-08-14T14:22:04.415Z,54.26
2023-08-14T14:24:33.270Z,54.65
2023-08-14T14:27:02.082Z,54.88
2023-08-14T14:29:32.226Z,54.87
2023-08-14T14:32:00.392Z,54.69
2023-08-14T14:34:30.099Z,54.58
2023-08-14T14:36:58.640Z,54.48
2023-08-14T14:39:26.945Z,54.64
2023-08-14T14:41:55.004Z,54.79
2023-08-14T14:44:23.286Z,55.00
2023-08-14T14:46:51.506Z,55.15
2023-08-14T14:49:20.523Z,55.27
2023-08-14T14:51:50.185Z,55.31
2023-08-14T14:54:18.631Z,55.36
2023-08-14T14:56:46.948Z,55.23
2023-08-14T14:59:15.384Z,55.19
2023-08-14T15:01:43.554Z,55.21
2023-08-14T15:04:13.786Z,55.30
2023-08-14T15:06:42.998Z,55.18
2023-08-14T15:09:11.286Z,54.95
2023-08-14T15:11:39.610Z,54.82
2023-08-14T15:14:08.081Z,54.79
2023-08-14T15:16:36.088Z,54.82
2023-08-14T15:19:04.362Z,54.83
2023-08-14T15:21:32.388Z,54.74
2023-08-14T15:24:00.511Z,54.61
2023-08-14T15:26:28.620Z,54.49
2023-08-14T15:28:56.713Z,54.43
2023-08-14T15:31:24.837Z,54.34
2023-08-14T15:33:53.203Z,53.84
2023-08-14T15:36:22.557Z,53.29
2023-08-14T15:38:50.783Z,52.88
2023-08-14T15:41:18.924Z,52.70
2023-08-14T15:43:46.961Z,52.62
2023-08-14T15:46:15.018Z,52.48
2023-08-14T15:48:43.957Z,52.38
2023-08-14T15:51:12.654Z,52.31
2023-08-14T15:53:41.067Z,52.20
2023-08-14T15:56:09.577Z,51.66
2023-08-14T15:58:37.929Z,51.17
2023-08-14T16:01:06.306Z,50.60
2023-08-14T16:03:36.983Z,50.02
2023-08-14T16:06:06.466Z,49.64
2023-08-14T16:08:35.700Z,49.52
2023-08-14T16:11:03.827Z,49.27
2023-08-14T16:13:33.745Z,49.16
2023-08-14T16:16:02.291Z,49.05
2023-08-14T16:18:30.413Z,48.91
2023-08-14T16:21:00.372Z,48.59
2023-08-14T16:23:29.280Z,48.22
2023-08-14T16:25:57.504Z,47.85
2023-08-14T16:28:25.692Z,47.11
2023-08-14T16:30:54.911Z,46.01
2023-08-14T16:33:23.575Z,44.74
2023-08-14T16:35:52.070Z,43.65
2023-08-14T16:38:20.154Z,42.67
2023-08-14T16:40:48.671Z,41.75
2023-08-14T16:43:17.096Z,40.94
2023-08-14T16:45:50.020Z,40.14
2023-08-14T16:48:18.118Z,39.38
2023-08-14T16:50:46.985Z,38.75
2023-08-14T16:53:15.727Z,38.18
2023-08-14T16:55:44.739Z,37.55
2023-08-14T16:58:12.892Z,37.02
2023-08-14T17:00:40.904Z,36.55
2023-08-14T17:03:09.192Z,36.09
2023-08-14T17:05:37.405Z,35.69
2023-08-14T17:08:06.814Z,35.28
2023-08-14T17:10:36.050Z,34.90
2023-08-14T17:13:05.096Z,34.62
2023-08-14T17:15:43.163Z,34.37
2023-08-14T17:18:11.577Z,34.11
2023-08-14T17:20:46.549Z,33.83
2023-08-14T17:23:17.106Z,33.50
2023-08-14T17:25:52.786Z,33.18
2023-08-14T17:28:24.504Z,32.84
2023-08-14T17:30:54.858Z,32.50
2023-08-14T17:33:24.105Z,32.12
2023-08-14T17:35:53.073Z,31.84
2023-08-14T17:38:21.680Z,31.63
2023-08-14T17:40:51.881Z,31.41
2023-08-14T17:43:20.638Z,31.19
2023-08-14T17:45:50.587Z,30.93
2023-08-14T17:48:20.256Z,30.59
2023-08-14T17:50:52.408Z,30.28
2023-08-14T17:53:21.332Z,30.07
2023-08-14T17:55:49.690Z,29.78
2023-08-14T17:58:18.060Z,29.52
2023-08-14T18:00:51.358Z,29.35
2023-08-14T18:03:20.270Z,29.17
2023-08-14T18:05:50.414Z,29.03
2023-08-14T18:08:19.118Z,28.90
2023-08-14T18:10:47.393Z,28.76
2023-08-14T18:13:15.554Z,28.63
2023-08-14T18:15:43.997Z,28.45
2023-08-14T18:18:12.297Z,28.31
2023-08-14T18:20:40.554Z,28.20
2023-08-14T18:23:09.203Z,28.04
2023-08-14T18:25:37.582Z,27.83
2023-08-14T18:28:05.744Z,27.70
2023-08-14T18:30:34.030Z,27.57
2023-08-14T18:33:02.577Z,27.48
2023-08-14T18:35:30.709Z,27.35
2023-08-14T18:38:00.599Z,27.21
2023-08-14T18:40:29.123Z,27.10
2023-08-14T18:42:57.236Z,26.99
2023-08-14T18:45:26.313Z,26.84
2023-08-14T18:47:54.846Z,26.73
2023-08-14T18:50:23.860Z,26.61
2023-08-14T18:52:54.446Z,26.50
2023-08-14T18:55:23.358Z,26.36
2023-08-14T18:57:51.570Z,26.25
2023-08-14T19:00:19.730Z,26.13
2023-08-14T19:02:47.929Z,26.01
2023-08-14T19:05:16.374Z,25.88
2023-08-14T19:07:44.694Z,25.75
2023-08-14T19:10:13.253Z,25.61
2023-08-14T19:12:41.639Z,25.50
2023-08-14T19:15:10.069Z,25.42
2023-08-14T19:17:38.494Z,25.26
2023-08-14T19:20:07.550Z,25.16
2023-08-14T19:22:35.880Z,25.08
2023-08-14T19:25:04.738Z,24.99
2023-08-14T19:27:32.970Z,24.86
2023-08-14T19:30:01.418Z,24.77
2023-08-14T19:32:29.812Z,24.68
2023-08-14T19:34:58.954Z,24.60
2023-08-14T19:37:27.272Z,24.54
2023-08-14T19:39:55.349Z,24.47
2023-08-14T19:42:23.653Z,24.38
2023-08-14T19:44:51.986Z,24.24
2023-08-14T19:47:20.526Z,24.16
2023-08-14T19:49:49.878Z,24.09
2023-08-14T19:52:18.406Z,24.03
2023-08-14T19:54:46.609Z,23.97
2023-08-14T19:57:14.908Z,23.90
2023-08-14T19:59:43.387Z,23.85
2023-08-14T20:02:11.545Z,23.79
2023-08-14T20:04:40.149Z,23.73
2023-08-14T20:07:08.319Z,23.67
2023-08-14T20:09:40.526Z,23.60
2023-08-14T20:12:09.362Z,23.53
2023-08-14T20:14:39.868Z,23.47
2023-08-14T20:17:08.294Z,23.40
2023-08-14T20:19:36.487Z,23.33
2023-08-14T20:22:05.071Z,23.25
2023-08-14T20:24:33.191Z,23.18
2023-08-14T20:27:01.932Z,23.10
2023-08-14T20:29:30.166Z,23.03
2023-08-14T20:31:58.351Z,22.96
2023-08-14T20:34:28.286Z,22.90
2023-08-14T20:36:56.369Z,22.86
2023-08-14T20:39:24.459Z,22.84
2023-08-14T20:41:52.615Z,22.79
2023-08-14T20:44:20.808Z,22.73
2023-08-14T20:46:49.840Z,22.65
2023-08-14T20:49:18.183Z,22.58
2023-08-14T20:51:47.043Z,22.53
2023-08-14T20:54:15.502Z,22.46
2023-08-14T20:56:44.160Z,22.41
2023-08-14T20:59:12.365Z,22.36
2023-08-14T21:01:41.299Z,22.30
2023-08-14T21:04:09.637Z,22.23
2023-08-14T21:06:37.672Z,22.15
2023-08-14T21:09:06.733Z,22.04
2023-08-14T21:11:34.843Z,21.95
2023-08-14T21:14:03.619Z,21.89
2023-08-14T21:16:32.053Z,21.83
2023-08-14T21:19:00.287Z,21.79
2023-08-14T21:21:28.714Z,21.75
2023-08-14T21:23:56.883Z,21.70
2023-08-14T21:26:25.258Z,21.66
2023-08-14T21:28:53.597Z,21.62
2023-08-14T21:31:22.032Z,21.58
2023-08-14T21:33:50.828Z,21.55
2023-08-14T21:36:19.199Z,21.51
2023-08-14T21:38:47.514Z,21.47
2023-08-14T21:41:15.577Z,21.42
2023-08-14T21:43:44.049Z,21.36
2023-08-14T21:46:12.734Z,21.32
2023-08-14T21:48:41.302Z,21.29
2023-08-14T21:51:11.425Z,21.26
2023-08-14T21:53:39.655Z,21.21
2023-08-14T21:56:08.308Z,21.13
2023-08-14T21:58:36.370Z,21.07
2023-08-14T22:01:04.687Z,21.02
2023-08-14T22:03:32.957Z,20.93
2023-08-14T22:06:04.977Z,20.86
2023-08-14T22:08:33.384Z,20.78
2023-08-14T22:11:02.547Z,20.70
2023-08-14T22:13:31.075Z,20.63
2023-08-14T22:15:59.319Z,20.59
2023-08-14T22:18:27.431Z,20.55
2023-08-14T22:20:56.133Z,20.52
2023-08-14T22:23:24.385Z,20.50
2023-08-14T22:25:52.773Z,20.46
2023-08-14T22:28:21.193Z,20.42
2023-08-14T22:30:49.601Z,20.38
2023-08-14T22:33:18.064Z,20.34
2023-08-14T22:35:59.095Z,20.31
2023-08-14T22:38:27.148Z,20.27
2023-08-14T22:40:55.310Z,20.25
2023-08-14T22:43:23.768Z,20.22
2023-08-14T22:45:51.840Z,20.18
2023-08-14T22:48:20.855Z,20.12
2023-08-14T22:50:49.527Z,20.07
2023-08-14T22:53:19.089Z,20.01
2023-08-14T22:55:50.334Z,19.93
2023-08-14T22:58:19.393Z,19.88
2023-08-14T23:00:47.422Z,19.83
2023-08-14T23:03:15.490Z,19.78
2023-08-14T23:05:43.825Z,19.76
2023-08-14T23:08:12.124Z,19.74
2023-08-14T23:10:40.448Z,19.71
2023-08-14T23:13:08.995Z,19.64
2023-08-14T23:15:37.391Z,19.55
2023-08-14T23:18:05.965Z,19.49
2023-08-14T23:20:38.885Z,19.43
2023-08-14T23:23:08.413Z,19.39
2023-08-14T23:25:36.694Z,19.35
2023-08-14T23:28:05.883Z,19.27
2023-08-14T23:30:37.843Z,19.17
2023-08-14T23:33:07.125Z,19.10
2023-08-14T23:35:35.612Z,19.05
2023-08-14T23:38:04.768Z,19.00
2023-08-14T23:40:33.470Z,18.97
2023-08-14T23:43:02.259Z,18.98
2023-08-14T23:45:31.699Z,18.97
2023-08-14T23:48:00.302Z,18.95
2023-08-14T23:50:29.176Z,18.91
2023-08-14T23:52:57.487Z,18.91
2023-08-14T23:55:25.839Z,18.89
2023-08-14T23:57:55.256Z,18.86
